sensor_id;sensor_type;location;lat;lon;timestamp;temperature;humidity
66722;SHT31;53633;49.932;10.884;2022-09-03T00:02:32;15.85;56.89
66722;SHT31;53633;49.932;10.884;2022-09-03T00:05:04;16.10;56.03
66722;SHT31;53633;49.932;10.884;2022-09-03T00:07:38;15.97;56.80
66722;SHT31;53633;49.932;10.884;2022-09-03T00:10:09;16.11;56.25
66722;SHT31;53633;49.932;10.884;2022-09-03T00:12:43;15.46;58.22
66722;SHT31;53633;49.932;10.884;2022-09-03T00:15:11;15.10;59.14
66722;SHT31;53633;49.932;10.884;2022-09-03T00:17:43;15.30;58.67
66722;SHT31;53633;49.932;10.884;2022-09-03T00:20:14;15.06;59.43
66722;SHT31;53633;49.932;10.884;2022-09-03T00:22:45;15.32;59.05
66722;SHT31;53633;49.932;10.884;2022-09-03T00:25:16;15.24;59.51
66722;SHT31;53633;49.932;10.884;2022-09-03T00:27:47;15.20;60.04
66722;SHT31;53633;49.932;10.884;2022-09-03T00:30:16;14.97;60.41
66722;SHT31;53633;49.932;10.884;2022-09-03T00:32:47;14.73;62.03
66722;SHT31;53633;49.932;10.884;2022-09-03T00:35:19;14.53;62.67
66722;SHT31;53633;49.932;10.884;2022-09-03T00:37:49;14.43;63.69
66722;SHT31;53633;49.932;10.884;2022-09-03T00:43:24;14.01;64.63
66722;SHT31;53633;49.932;10.884;2022-09-03T00:45:59;14.05;64.90
66722;SHT31;53633;49.932;10.884;2022-09-03T00:48:45;13.73;65.73
66722;SHT31;53633;49.932;10.884;2022-09-03T00:51:21;14.24;64.17
66722;SHT31;53633;49.932;10.884;2022-09-03T00:53:59;13.90;65.42
66722;SHT31;53633;49.932;10.884;2022-09-03T00:56:36;13.60;66.63
66722;SHT31;53633;49.932;10.884;2022-09-03T00:59:12;13.36;66.87
66722;SHT31;53633;49.932;10.884;2022-09-03T01:01:48;13.14;67.43
66722;SHT31;53633;49.932;10.884;2022-09-03T01:04:27;13.11;67.74
66722;SHT31;53633;49.932;10.884;2022-09-03T01:07:01;12.98;68.26
66722;SHT31;53633;49.932;10.884;2022-09-03T01:09:40;12.87;68.77
66722;SHT31;53633;49.932;10.884;2022-09-03T01:12:14;12.97;69.02
66722;SHT31;53633;49.932;10.884;2022-09-03T01:14:55;12.98;69.09
66722;SHT31;53633;49.932;10.884;2022-09-03T01:17:34;12.84;69.43
66722;SHT31;53633;49.932;10.884;2022-09-03T01:20:13;12.85;69.73
66722;SHT31;53633;49.932;10.884;2022-09-03T01:25:51;13.01;69.77
66722;SHT31;53633;49.932;10.884;2022-09-03T01:28:28;13.76;67.56
66722;SHT31;53633;49.932;10.884;2022-09-03T01:31:07;13.59;67.96
66722;SHT31;53633;49.932;10.884;2022-09-03T01:33:39;13.63;67.79
66722;SHT31;53633;49.932;10.884;2022-09-03T01:36:13;14.04;66.39
66722;SHT31;53633;49.932;10.884;2022-09-03T01:38:46;13.80;66.72
66722;SHT31;53633;49.932;10.884;2022-09-03T01:41:19;13.43;68.17
66722;SHT31;53633;49.932;10.884;2022-09-03T01:43:57;13.50;68.00
66722;SHT31;53633;49.932;10.884;2022-09-03T01:46:32;13.52;67.86
66722;SHT31;53633;49.932;10.884;2022-09-03T01:49:05;13.53;68.56
66722;SHT31;53633;49.932;10.884;2022-09-03T01:51:38;13.74;67.85
66722;SHT31;53633;49.932;10.884;2022-09-03T01:54:19;13.59;67.88
66722;SHT31;53633;49.932;10.884;2022-09-03T01:57:05;13.40;68.67
66722;SHT31;53633;49.932;10.884;2022-09-03T02:00:00;13.32;69.02
66722;SHT31;53633;49.932;10.884;2022-09-03T02:02:29;13.40;68.87
66722;SHT31;53633;49.932;10.884;2022-09-03T02:04:58;13.55;67.99
66722;SHT31;53633;49.932;10.884;2022-09-03T02:07:30;13.62;67.90
66722;SHT31;53633;49.932;10.884;2022-09-03T02:09:58;13.80;67.64
66722;SHT31;53633;49.932;10.884;2022-09-03T02:12:25;13.40;68.70
66722;SHT31;53633;49.932;10.884;2022-09-03T02:14:53;13.34;68.84
66722;SHT31;53633;49.932;10.884;2022-09-03T02:17:22;13.21;69.28
66722;SHT31;53633;49.932;10.884;2022-09-03T02:19:49;13.40;69.18
66722;SHT31;53633;49.932;10.884;2022-09-03T02:22:16;13.53;68.30
66722;SHT31;53633;49.932;10.884;2022-09-03T02:24:43;13.29;69.14
66722;SHT31;53633;49.932;10.884;2022-09-03T02:27:09;13.19;69.86
66722;SHT31;53633;49.932;10.884;2022-09-03T02:29:36;13.43;69.24
66722;SHT31;53633;49.932;10.884;2022-09-03T02:32:03;13.00;70.31
66722;SHT31;53633;49.932;10.884;2022-09-03T02:34:32;12.97;71.09
66722;SHT31;53633;49.932;10.884;2022-09-03T02:36:58;12.74;71.62
66722;SHT31;53633;49.932;10.884;2022-09-03T02:39:25;12.95;70.95
66722;SHT31;53633;49.932;10.884;2022-09-03T02:41:54;12.98;71.36
66722;SHT31;53633;49.932;10.884;2022-09-03T02:44:25;13.26;70.28
66722;SHT31;53633;49.932;10.884;2022-09-03T02:46:57;13.63;69.07
66722;SHT31;53633;49.932;10.884;2022-09-03T02:49:24;13.57;69.01
66722;SHT31;53633;49.932;10.884;2022-09-03T02:51:57;13.05;71.04
66722;SHT31;53633;49.932;10.884;2022-09-03T02:54:24;12.84;71.71
66722;SHT31;53633;49.932;10.884;2022-09-03T02:56:50;13.07;70.89
66722;SHT31;53633;49.932;10.884;2022-09-03T02:59:17;13.10;70.72
66722;SHT31;53633;49.932;10.884;2022-09-03T03:01:44;13.36;70.09
66722;SHT31;53633;49.932;10.884;2022-09-03T03:04:12;13.35;69.67
66722;SHT31;53633;49.932;10.884;2022-09-03T03:06:39;13.57;68.93
66722;SHT31;53633;49.932;10.884;2022-09-03T03:09:07;13.46;69.49
66722;SHT31;53633;49.932;10.884;2022-09-03T03:11:33;13.43;69.51
66722;SHT31;53633;49.932;10.884;2022-09-03T03:14:00;13.22;70.45
66722;SHT31;53633;49.932;10.884;2022-09-03T03:16:27;13.12;70.95
66722;SHT31;53633;49.932;10.884;2022-09-03T03:18:55;13.05;70.83
66722;SHT31;53633;49.932;10.884;2022-09-03T03:21:21;12.63;72.67
66722;SHT31;53633;49.932;10.884;2022-09-03T03:23:48;12.70;72.61
66722;SHT31;53633;49.932;10.884;2022-09-03T03:26:18;12.83;72.52
66722;SHT31;53633;49.932;10.884;2022-09-03T03:28:46;12.84;72.55
66722;SHT31;53633;49.932;10.884;2022-09-03T03:31:14;13.08;71.51
66722;SHT31;53633;49.932;10.884;2022-09-03T03:33:42;13.02;71.86
66722;SHT31;53633;49.932;10.884;2022-09-03T03:36:11;12.85;72.18
66722;SHT31;53633;49.932;10.884;2022-09-03T03:38:39;13.18;71.34
66722;SHT31;53633;49.932;10.884;2022-09-03T03:41:07;13.22;71.12
66722;SHT31;53633;49.932;10.884;2022-09-03T03:43:35;13.35;70.76
66722;SHT31;53633;49.932;10.884;2022-09-03T03:46:02;13.07;71.65
66722;SHT31;53633;49.932;10.884;2022-09-03T03:48:28;12.67;73.13
66722;SHT31;53633;49.932;10.884;2022-09-03T03:50:59;12.64;73.66
66722;SHT31;53633;49.932;10.884;2022-09-03T03:53:26;12.63;73.53
66722;SHT31;53633;49.932;10.884;2022-09-03T03:55:54;12.63;73.48
66722;SHT31;53633;49.932;10.884;2022-09-03T03:58:21;12.56;73.60
66722;SHT31;53633;49.932;10.884;2022-09-03T04:00:49;12.80;72.94
66722;SHT31;53633;49.932;10.884;2022-09-03T04:03:16;12.61;73.36
66722;SHT31;53633;49.932;10.884;2022-09-03T04:05:43;12.70;73.18
66722;SHT31;53633;49.932;10.884;2022-09-03T04:08:14;12.85;73.01
66722;SHT31;53633;49.932;10.884;2022-09-03T04:10:40;12.84;72.95
66722;SHT31;53633;49.932;10.884;2022-09-03T04:13:07;12.91;72.81
66722;SHT31;53633;49.932;10.884;2022-09-03T04:15:34;12.92;72.68
66722;SHT31;53633;49.932;10.884;2022-09-03T04:18:02;12.67;73.04
66722;SHT31;53633;49.932;10.884;2022-09-03T04:20:28;12.52;73.65
66722;SHT31;53633;49.932;10.884;2022-09-03T04:22:59;12.49;74.30
66722;SHT31;53633;49.932;10.884;2022-09-03T04:25:25;12.19;75.04
66722;SHT31;53633;49.932;10.884;2022-09-03T04:27:52;12.14;75.55
66722;SHT31;53633;49.932;10.884;2022-09-03T04:30:19;12.19;75.27
66722;SHT31;53633;49.932;10.884;2022-09-03T04:32:48;12.12;75.86
66722;SHT31;53633;49.932;10.884;2022-09-03T04:35:19;12.32;75.54
66722;SHT31;53633;49.932;10.884;2022-09-03T04:37:46;12.40;74.98
66722;SHT31;53633;49.932;10.884;2022-09-03T04:40:13;12.53;74.75
66722;SHT31;53633;49.932;10.884;2022-09-03T04:42:40;12.74;74.20
66722;SHT31;53633;49.932;10.884;2022-09-03T04:45:08;12.92;73.18
66722;SHT31;53633;49.932;10.884;2022-09-03T04:47:35;12.77;73.75
66722;SHT31;53633;49.932;10.884;2022-09-03T04:50:01;12.81;73.56
66722;SHT31;53633;49.932;10.884;2022-09-03T04:52:30;12.64;73.98
66722;SHT31;53633;49.932;10.884;2022-09-03T04:54:57;13.21;72.54
66722;SHT31;53633;49.932;10.884;2022-09-03T04:57:23;12.83;73.54
66722;SHT31;53633;49.932;10.884;2022-09-03T04:59:50;12.72;74.49
66722;SHT31;53633;49.932;10.884;2022-09-03T05:02:17;12.63;74.51
66722;SHT31;53633;49.932;10.884;2022-09-03T05:04:44;12.63;74.59
66722;SHT31;53633;49.932;10.884;2022-09-03T05:07:10;12.85;73.42
66722;SHT31;53633;49.932;10.884;2022-09-03T05:09:38;12.90;73.57
66722;SHT31;53633;49.932;10.884;2022-09-03T05:12:05;12.70;73.93
66722;SHT31;53633;49.932;10.884;2022-09-03T05:14:32;13.04;73.52
66722;SHT31;53633;49.932;10.884;2022-09-03T05:16:59;13.07;72.94
66722;SHT31;53633;49.932;10.884;2022-09-03T05:19:25;13.23;72.76
66722;SHT31;53633;49.932;10.884;2022-09-03T05:21:52;13.31;72.51
66722;SHT31;53633;49.932;10.884;2022-09-03T05:24:19;13.34;72.58
66722;SHT31;53633;49.932;10.884;2022-09-03T05:26:47;13.78;71.02
66722;SHT31;53633;49.932;10.884;2022-09-03T05:29:13;13.97;70.76
66722;SHT31;53633;49.932;10.884;2022-09-03T05:31:40;13.90;70.42
66722;SHT31;53633;49.932;10.884;2022-09-03T05:34:07;14.15;69.82
66722;SHT31;53633;49.932;10.884;2022-09-03T05:36:35;14.11;69.59
66722;SHT31;53633;49.932;10.884;2022-09-03T05:39:03;14.36;69.22
66722;SHT31;53633;49.932;10.884;2022-09-03T05:41:30;14.60;68.04
66722;SHT31;53633;49.932;10.884;2022-09-03T05:43:58;16.14;63.17
66722;SHT31;53633;49.932;10.884;2022-09-03T05:46:27;17.78;59.18
66722;SHT31;53633;49.932;10.884;2022-09-03T05:48:54;17.85;57.92
66722;SHT31;53633;49.932;10.884;2022-09-03T05:51:20;18.92;55.61
66722;SHT31;53633;49.932;10.884;2022-09-03T05:53:47;19.47;53.38
66722;SHT31;53633;49.932;10.884;2022-09-03T05:56:16;19.31;53.81
66722;SHT31;53633;49.932;10.884;2022-09-03T05:58:44;18.84;54.85
66722;SHT31;53633;49.932;10.884;2022-09-03T06:01:15;18.38;56.20
66722;SHT31;53633;49.932;10.884;2022-09-03T06:03:44;19.33;54.19
66722;SHT31;53633;49.932;10.884;2022-09-03T06:06:12;20.54;51.10
66722;SHT31;53633;49.932;10.884;2022-09-03T06:08:39;21.15;49.38
66722;SHT31;53633;49.932;10.884;2022-09-03T06:11:07;21.70;48.25
66722;SHT31;53633;49.932;10.884;2022-09-03T06:13:34;21.50;48.27
66722;SHT31;53633;49.932;10.884;2022-09-03T06:16:05;20.83;50.07
66722;SHT31;53633;49.932;10.884;2022-09-03T06:18:34;20.63;49.94
66722;SHT31;53633;49.932;10.884;2022-09-03T06:21:03;20.42;51.03
66722;SHT31;53633;49.932;10.884;2022-09-03T06:23:30;19.96;51.46
66722;SHT31;53633;49.932;10.884;2022-09-03T06:26:02;19.99;51.26
66722;SHT31;53633;49.932;10.884;2022-09-03T06:28:31;19.66;52.71
66722;SHT31;53633;49.932;10.884;2022-09-03T06:30:58;19.06;53.45
66722;SHT31;53633;49.932;10.884;2022-09-03T06:33:24;19.12;54.02
66722;SHT31;53633;49.932;10.884;2022-09-03T06:35:54;19.20;53.96
66722;SHT31;53633;49.932;10.884;2022-09-03T06:38:20;19.23;54.38
66722;SHT31;53633;49.932;10.884;2022-09-03T06:40:51;20.06;52.59
66722;SHT31;53633;49.932;10.884;2022-09-03T06:43:17;20.33;51.53
66722;SHT31;53633;49.932;10.884;2022-09-03T06:45:52;20.28;51.19
66722;SHT31;53633;49.932;10.884;2022-09-03T06:48:19;20.25;51.40
66722;SHT31;53633;49.932;10.884;2022-09-03T06:50:54;19.66;52.63
66722;SHT31;53633;49.932;10.884;2022-09-03T06:53:22;19.87;52.11
66722;SHT31;53633;49.932;10.884;2022-09-03T06:55:59;19.94;52.63
66722;SHT31;53633;49.932;10.884;2022-09-03T06:58:28;19.34;52.29
66722;SHT31;53633;49.932;10.884;2022-09-03T07:01:00;20.12;51.95
66722;SHT31;53633;49.932;10.884;2022-09-03T07:03:28;20.40;51.08
66722;SHT31;53633;49.932;10.884;2022-09-03T07:06:00;21.43;47.03
66722;SHT31;53633;49.932;10.884;2022-09-03T07:08:27;23.08;44.56
66722;SHT31;53633;49.932;10.884;2022-09-03T07:10:53;24.27;42.34
66722;SHT31;53633;49.932;10.884;2022-09-03T07:13:20;24.76;39.75
66722;SHT31;53633;49.932;10.884;2022-09-03T07:15:47;25.33;38.52
66722;SHT31;53633;49.932;10.884;2022-09-03T07:18:14;26.76;37.13
66722;SHT31;53633;49.932;10.884;2022-09-03T07:20:40;26.22;36.55
66722;SHT31;53633;49.932;10.884;2022-09-03T07:23:08;26.47;35.62
66722;SHT31;53633;49.932;10.884;2022-09-03T07:25:35;26.92;34.93
66722;SHT31;53633;49.932;10.884;2022-09-03T07:28:04;27.11;34.38
66722;SHT31;53633;49.932;10.884;2022-09-03T07:30:31;26.70;34.95
66722;SHT31;53633;49.932;10.884;2022-09-03T07:32:57;26.65;34.61
66722;SHT31;53633;49.932;10.884;2022-09-03T07:35:24;27.59;33.57
66722;SHT31;53633;49.932;10.884;2022-09-03T07:37:51;28.70;31.55
66722;SHT31;53633;49.932;10.884;2022-09-03T07:40:19;29.47;30.77
66722;SHT31;53633;49.932;10.884;2022-09-03T07:42:45;30.10;30.13
66722;SHT31;53633;49.932;10.884;2022-09-03T07:45:12;30.96;28.93
66722;SHT31;53633;49.932;10.884;2022-09-03T07:47:45;30.07;29.93
66722;SHT31;53633;49.932;10.884;2022-09-03T07:50:12;30.09;29.39
66722;SHT31;53633;49.932;10.884;2022-09-03T07:52:38;30.68;29.24
66722;SHT31;53633;49.932;10.884;2022-09-03T07:55:06;30.59;29.58
66722;SHT31;53633;49.932;10.884;2022-09-03T07:57:34;29.22;31.11
66722;SHT31;53633;49.932;10.884;2022-09-03T08:00:01;29.37;30.98
66722;SHT31;53633;49.932;10.884;2022-09-03T08:02:28;28.66;31.90
66722;SHT31;53633;49.932;10.884;2022-09-03T08:04:55;28.74;32.06
66722;SHT31;53633;49.932;10.884;2022-09-03T08:07:22;29.32;31.49
66722;SHT31;53633;49.932;10.884;2022-09-03T08:09:49;29.12;31.52
66722;SHT31;53633;49.932;10.884;2022-09-03T08:12:15;28.15;32.64
66722;SHT31;53633;49.932;10.884;2022-09-03T08:14:44;27.21;34.21
66722;SHT31;53633;49.932;10.884;2022-09-03T08:17:10;26.09;35.18
66722;SHT31;53633;49.932;10.884;2022-09-03T08:19:37;25.84;36.16
66722;SHT31;53633;49.932;10.884;2022-09-03T08:22:04;25.13;36.90
66722;SHT31;53633;49.932;10.884;2022-09-03T08:24:30;24.82;37.65
66722;SHT31;53633;49.932;10.884;2022-09-03T08:26:57;24.43;38.88
66722;SHT31;53633;49.932;10.884;2022-09-03T08:29:24;25.02;37.46
66722;SHT31;53633;49.932;10.884;2022-09-03T08:31:52;25.92;36.46
66722;SHT31;53633;49.932;10.884;2022-09-03T08:34:20;25.78;36.03
66722;SHT31;53633;49.932;10.884;2022-09-03T08:36:46;25.43;36.92
66722;SHT31;53633;49.932;10.884;2022-09-03T08:39:13;24.60;37.88
66722;SHT31;53633;49.932;10.884;2022-09-03T08:41:52;22.83;40.69
66722;SHT31;53633;49.932;10.884;2022-09-03T08:44:26;22.69;41.03
66722;SHT31;53633;49.932;10.884;2022-09-03T08:46:59;22.92;40.61
66722;SHT31;53633;49.932;10.884;2022-09-03T08:49:31;23.02;41.37
66722;SHT31;53633;49.932;10.884;2022-09-03T08:52:02;22.77;41.34
66722;SHT31;53633;49.932;10.884;2022-09-03T08:54:31;22.39;42.10
66722;SHT31;53633;49.932;10.884;2022-09-03T08:57:00;22.49;42.08
66722;SHT31;53633;49.932;10.884;2022-09-03T08:59:29;22.60;41.93
66722;SHT31;53633;49.932;10.884;2022-09-03T09:02:05;22.53;42.22
66722;SHT31;53633;49.932;10.884;2022-09-03T09:04:46;22.89;41.52
66722;SHT31;53633;49.932;10.884;2022-09-03T09:07:21;22.89;42.04
66722;SHT31;53633;49.932;10.884;2022-09-03T09:09:55;22.70;41.85
66722;SHT31;53633;49.932;10.884;2022-09-03T09:12:30;22.99;40.82
66722;SHT31;53633;49.932;10.884;2022-09-03T09:15:18;23.61;40.82
66722;SHT31;53633;49.932;10.884;2022-09-03T09:18:02;23.62;40.61
66722;SHT31;53633;49.932;10.884;2022-09-03T09:20:35;23.73;40.87
66722;SHT31;53633;49.932;10.884;2022-09-03T09:23:06;23.34;41.14
66722;SHT31;53633;49.932;10.884;2022-09-03T09:25:42;23.31;41.42
66722;SHT31;53633;49.932;10.884;2022-09-03T09:28:15;23.14;41.29
66722;SHT31;53633;49.932;10.884;2022-09-03T09:30:44;24.12;40.39
66722;SHT31;53633;49.932;10.884;2022-09-03T09:33:16;24.17;40.36
66722;SHT31;53633;49.932;10.884;2022-09-03T09:35:44;24.13;39.34
66722;SHT31;53633;49.932;10.884;2022-09-03T09:38:12;24.68;39.37
66722;SHT31;53633;49.932;10.884;2022-09-03T09:40:43;25.19;38.76
66722;SHT31;53633;49.932;10.884;2022-09-03T09:43:12;25.61;37.98
66722;SHT31;53633;49.932;10.884;2022-09-03T09:45:41;26.32;37.58
66722;SHT31;53633;49.932;10.884;2022-09-03T09:48:14;26.18;36.42
66722;SHT31;53633;49.932;10.884;2022-09-03T09:50:42;25.64;37.78
66722;SHT31;53633;49.932;10.884;2022-09-03T09:53:10;26.51;35.94
66722;SHT31;53633;49.932;10.884;2022-09-03T09:55:47;27.14;35.20
66722;SHT31;53633;49.932;10.884;2022-09-03T09:58:14;27.19;35.69
66722;SHT31;53633;49.932;10.884;2022-09-03T10:00:54;27.31;35.12
66722;SHT31;53633;49.932;10.884;2022-09-03T10:03:22;26.92;36.09
66722;SHT31;53633;49.932;10.884;2022-09-03T10:05:59;28.21;33.60
66722;SHT31;53633;49.932;10.884;2022-09-03T10:08:26;28.66;32.21
66722;SHT31;53633;49.932;10.884;2022-09-03T10:10:53;28.01;33.48
66722;SHT31;53633;49.932;10.884;2022-09-03T10:13:23;28.39;33.88
66722;SHT31;53633;49.932;10.884;2022-09-03T10:15:55;27.43;34.12
66722;SHT31;53633;49.932;10.884;2022-09-03T10:18:33;27.53;35.05
66722;SHT31;53633;49.932;10.884;2022-09-03T10:21:05;26.36;35.38
66722;SHT31;53633;49.932;10.884;2022-09-03T10:23:49;25.82;36.36
66722;SHT31;53633;49.932;10.884;2022-09-03T10:26:19;26.23;36.26
66722;SHT31;53633;49.932;10.884;2022-09-03T10:28:51;26.30;36.09
66722;SHT31;53633;49.932;10.884;2022-09-03T10:31:35;25.96;36.56
66722;SHT31;53633;49.932;10.884;2022-09-03T10:34:11;26.25;36.63
66722;SHT31;53633;49.932;10.884;2022-09-03T10:36:44;26.36;36.08
66722;SHT31;53633;49.932;10.884;2022-09-03T10:39:20;26.11;37.12
66722;SHT31;53633;49.932;10.884;2022-09-03T10:41:58;25.95;37.33
66722;SHT31;53633;49.932;10.884;2022-09-03T10:44:44;25.95;37.37
66722;SHT31;53633;49.932;10.884;2022-09-03T10:47:28;25.95;37.23
66722;SHT31;53633;49.932;10.884;2022-09-03T10:50:03;25.95;36.63
66722;SHT31;53633;49.932;10.884;2022-09-03T10:52:36;25.00;37.63
66722;SHT31;53633;49.932;10.884;2022-09-03T10:55:19;25.00;37.92
66722;SHT31;53633;49.932;10.884;2022-09-03T10:57:56;24.64;38.49
66722;SHT31;53633;49.932;10.884;2022-09-03T11:00:28;24.92;37.61
66722;SHT31;53633;49.932;10.884;2022-09-03T11:03:21;25.23;38.42
66722;SHT31;53633;49.932;10.884;2022-09-03T11:05:59;25.47;37.52
66722;SHT31;53633;49.932;10.884;2022-09-03T11:08:29;25.58;37.61
66722;SHT31;53633;49.932;10.884;2022-09-03T11:11:06;25.37;37.61
66722;SHT31;53633;49.932;10.884;2022-09-03T11:13:38;25.44;38.22
66722;SHT31;53633;49.932;10.884;2022-09-03T11:16:10;25.47;38.04
66722;SHT31;53633;49.932;10.884;2022-09-03T11:18:42;25.37;38.08
66722;SHT31;53633;49.932;10.884;2022-09-03T11:21:14;25.64;37.02
66722;SHT31;53633;49.932;10.884;2022-09-03T11:23:43;25.60;37.19
66722;SHT31;53633;49.932;10.884;2022-09-03T11:26:15;26.06;37.17
66722;SHT31;53633;49.932;10.884;2022-09-03T11:28:50;26.23;37.41
66722;SHT31;53633;49.932;10.884;2022-09-03T11:31:24;26.20;36.34
66722;SHT31;53633;49.932;10.884;2022-09-03T11:33:59;25.85;37.19
66722;SHT31;53633;49.932;10.884;2022-09-03T11:36:31;25.88;38.01
66722;SHT31;53633;49.932;10.884;2022-09-03T11:38:58;26.19;36.80
66722;SHT31;53633;49.932;10.884;2022-09-03T11:41:26;26.61;36.55
66722;SHT31;53633;49.932;10.884;2022-09-03T11:43:53;26.11;36.45
66722;SHT31;53633;49.932;10.884;2022-09-03T11:46:38;26.19;37.03
66722;SHT31;53633;49.932;10.884;2022-09-03T11:49:27;25.77;37.25
66722;SHT31;53633;49.932;10.884;2022-09-03T11:52:00;26.08;36.97
66722;SHT31;53633;49.932;10.884;2022-09-03T11:54:31;26.30;36.98
66722;SHT31;53633;49.932;10.884;2022-09-03T11:57:11;26.40;36.46
66722;SHT31;53633;49.932;10.884;2022-09-03T11:59:39;26.60;36.10
66722;SHT31;53633;49.932;10.884;2022-09-03T12:02:16;26.73;35.34
66722;SHT31;53633;49.932;10.884;2022-09-03T12:04:50;26.80;35.65
66722;SHT31;53633;49.932;10.884;2022-09-03T12:07:46;26.71;36.50
66722;SHT31;53633;49.932;10.884;2022-09-03T12:10:26;27.22;35.88
66722;SHT31;53633;49.932;10.884;2022-09-03T12:13:03;27.40;35.56
66722;SHT31;53633;49.932;10.884;2022-09-03T12:15:59;27.71;35.67
66722;SHT31;53633;49.932;10.884;2022-09-03T12:18:32;27.69;34.87
66722;SHT31;53633;49.932;10.884;2022-09-03T12:21:01;27.67;35.43
66722;SHT31;53633;49.932;10.884;2022-09-03T12:23:31;27.69;35.40
66722;SHT31;53633;49.932;10.884;2022-09-03T12:26:00;27.67;35.50
66722;SHT31;53633;49.932;10.884;2022-09-03T12:28:29;27.57;36.30
66722;SHT31;53633;49.932;10.884;2022-09-03T12:31:06;27.38;35.22
66722;SHT31;53633;49.932;10.884;2022-09-03T12:33:39;27.49;35.70
66722;SHT31;53633;49.932;10.884;2022-09-03T12:36:08;27.54;36.05
66722;SHT31;53633;49.932;10.884;2022-09-03T12:38:36;27.23;35.72
66722;SHT31;53633;49.932;10.884;2022-09-03T12:41:25;26.80;37.10
66722;SHT31;53633;49.932;10.884;2022-09-03T12:43:55;26.54;37.95
66722;SHT31;53633;49.932;10.884;2022-09-03T12:46:23;26.46;37.87
66722;SHT31;53633;49.932;10.884;2022-09-03T12:49:01;26.44;37.66
66722;SHT31;53633;49.932;10.884;2022-09-03T12:51:48;26.40;38.43
66722;SHT31;53633;49.932;10.884;2022-09-03T12:54:24;26.63;38.69
66722;SHT31;53633;49.932;10.884;2022-09-03T12:56:54;26.70;38.98
66722;SHT31;53633;49.932;10.884;2022-09-03T12:59:24;26.63;38.23
66722;SHT31;53633;49.932;10.884;2022-09-03T13:01:57;26.51;38.02
66722;SHT31;53633;49.932;10.884;2022-09-03T13:04:28;26.81;38.10
66722;SHT31;53633;49.932;10.884;2022-09-03T13:07:00;26.94;37.46
66722;SHT31;53633;49.932;10.884;2022-09-03T13:09:30;26.58;37.26
66722;SHT31;53633;49.932;10.884;2022-09-03T13:11:58;26.67;37.99
66722;SHT31;53633;49.932;10.884;2022-09-03T13:14:26;26.81;37.81
66722;SHT31;53633;49.932;10.884;2022-09-03T13:17:23;26.16;38.82
66722;SHT31;53633;49.932;10.884;2022-09-03T13:20:17;26.61;38.71
66722;SHT31;53633;49.932;10.884;2022-09-03T13:23:05;26.29;38.88
66722;SHT31;53633;49.932;10.884;2022-09-03T13:25:42;26.13;40.63
66722;SHT31;53633;49.932;10.884;2022-09-03T13:28:24;26.16;39.84
66722;SHT31;53633;49.932;10.884;2022-09-03T13:30:59;26.11;40.37
66722;SHT31;53633;49.932;10.884;2022-09-03T13:33:32;26.29;40.14
66722;SHT31;53633;49.932;10.884;2022-09-03T13:36:04;26.49;39.55
66722;SHT31;53633;49.932;10.884;2022-09-03T13:38:38;26.53;40.12
66722;SHT31;53633;49.932;10.884;2022-09-03T13:41:12;26.50;40.50
66722;SHT31;53633;49.932;10.884;2022-09-03T13:43:42;26.35;41.00
66722;SHT31;53633;49.932;10.884;2022-09-03T13:46:15;26.26;41.10
66722;SHT31;53633;49.932;10.884;2022-09-03T13:48:44;26.06;41.62
66722;SHT31;53633;49.932;10.884;2022-09-03T13:51:16;25.93;42.24
66722;SHT31;53633;49.932;10.884;2022-09-03T13:53:56;25.86;42.64
66722;SHT31;53633;49.932;10.884;2022-09-03T13:56:35;25.71;42.75
66722;SHT31;53633;49.932;10.884;2022-09-03T13:59:16;26.03;42.40
66722;SHT31;53633;49.932;10.884;2022-09-03T14:02:06;26.20;41.93
66722;SHT31;53633;49.932;10.884;2022-09-03T14:04:43;26.37;41.90
66722;SHT31;53633;49.932;10.884;2022-09-03T14:07:17;26.32;41.92
66722;SHT31;53633;49.932;10.884;2022-09-03T14:09:53;26.39;41.90
66722;SHT31;53633;49.932;10.884;2022-09-03T14:12:30;26.18;42.61
66722;SHT31;53633;49.932;10.884;2022-09-03T14:15:06;25.92;42.89
66722;SHT31;53633;49.932;10.884;2022-09-03T14:17:39;25.38;43.66
66722;SHT31;53633;49.932;10.884;2022-09-03T14:20:12;25.43;43.74
66722;SHT31;53633;49.932;10.884;2022-09-03T14:22:48;25.23;44.19
66722;SHT31;53633;49.932;10.884;2022-09-03T14:25:18;24.90;44.50
66722;SHT31;53633;49.932;10.884;2022-09-03T14:27:47;25.16;44.46
66722;SHT31;53633;49.932;10.884;2022-09-03T14:30:24;25.27;44.69
66722;SHT31;53633;49.932;10.884;2022-09-03T14:32:57;25.34;44.20
66722;SHT31;53633;49.932;10.884;2022-09-03T14:35:34;25.48;44.29
66722;SHT31;53633;49.932;10.884;2022-09-03T14:38:28;25.60;44.34
66722;SHT31;53633;49.932;10.884;2022-09-03T14:41:03;25.65;44.52
66722;SHT31;53633;49.932;10.884;2022-09-03T14:43:47;25.57;44.50
66722;SHT31;53633;49.932;10.884;2022-09-03T14:46:31;25.55;43.96
66722;SHT31;53633;49.932;10.884;2022-09-03T14:49:11;25.60;44.30
66722;SHT31;53633;49.932;10.884;2022-09-03T14:51:55;25.77;44.39
66722;SHT31;53633;49.932;10.884;2022-09-03T14:54:49;25.95;43.87
66722;SHT31;53633;49.932;10.884;2022-09-03T14:57:36;26.06;43.32
66722;SHT31;53633;49.932;10.884;2022-09-03T15:00:14;26.09;42.12
66722;SHT31;53633;49.932;10.884;2022-09-03T15:03:06;26.39;42.30
66722;SHT31;53633;49.932;10.884;2022-09-03T15:05:49;26.37;43.98
66722;SHT31;53633;49.932;10.884;2022-09-03T15:08:27;26.32;43.29
66722;SHT31;53633;49.932;10.884;2022-09-03T15:10:59;26.16;43.42
66722;SHT31;53633;49.932;10.884;2022-09-03T15:13:30;26.03;44.17
66722;SHT31;53633;49.932;10.884;2022-09-03T15:16:10;25.81;43.38
66722;SHT31;53633;49.932;10.884;2022-09-03T15:18:54;25.89;44.88
66722;SHT31;53633;49.932;10.884;2022-09-03T15:21:30;25.74;44.85
66722;SHT31;53633;49.932;10.884;2022-09-03T15:24:06;25.64;44.25
66722;SHT31;53633;49.932;10.884;2022-09-03T15:26:53;25.50;45.06
66722;SHT31;53633;49.932;10.884;2022-09-03T15:29:29;25.33;45.50
66722;SHT31;53633;49.932;10.884;2022-09-03T15:32:05;25.24;45.82
66722;SHT31;53633;49.932;10.884;2022-09-03T15:34:54;25.16;45.42
66722;SHT31;53633;49.932;10.884;2022-09-03T15:37:26;25.20;46.05
66722;SHT31;53633;49.932;10.884;2022-09-03T15:39:59;25.12;46.18
66722;SHT31;53633;49.932;10.884;2022-09-03T15:42:28;25.08;46.38
66722;SHT31;53633;49.932;10.884;2022-09-03T15:45:01;25.00;46.36
66722;SHT31;53633;49.932;10.884;2022-09-03T15:47:39;25.05;46.62
66722;SHT31;53633;49.932;10.884;2022-09-03T15:50:28;24.92;47.38
66722;SHT31;53633;49.932;10.884;2022-09-03T15:53:00;24.96;46.99